Time;durP1;ratioP1;P1;durP2;ratioP2;P2;SDS_P1;SDS_P2;PMS_P1;PMS_P2;Temp;Humidity;BMP_temperature;BMP_pressure;BME280_temperature;BME280_humidity;BME280_pressure;Samples;Min_cycle;Max_cycle;Signal;HPM_P1;HPM_P2
2022/05/07 00:02:08;;;;;;;3.65;3.08;;;18.60;57.70;;;;;;5088754;28;20048;-72
2022/05/07 00:04:35;;;;;;;4.00;2.67;;;19.10;59.00;;;;;;5071353;28;20052;-72
2022/05/07 00:07:02;;;;;;;5.57;2.60;;;18.90;58.10;;;;;;5074485;28;20076;-71
2022/05/07 00:09:30;;;;;;;3.30;2.70;;;18.90;53.60;;;;;;5119451;27;20047;-72
2022/05/07 00:11:57;;;;;;;3.63;2.50;;;18.80;57.80;;;;;;5127827;27;20064;-72
2022/05/07 00:14:24;;;;;;;2.80;2.50;;;18.30;54.20;;;;;;5094004;28;20051;-72
2022/05/07 00:19:35;;;;;;;2.95;2.38;;;18.90;58.80;;;;;;5107119;28;20052;-72
2022/05/07 00:22:02;;;;;;;3.60;2.65;;;18.60;57.60;;;;;;5084285;28;20066;-72
2022/05/07 00:24:31;;;;;;;3.92;2.78;;;19.20;58.60;;;;;;5092833;28;20072;-72
2022/05/07 00:26:58;;;;;;;4.80;2.70;;;18.90;58.50;;;;;;5091571;28;20079;-72
2022/05/07 00:29:24;;;;;;;3.42;2.60;;;19.40;58.40;;;;;;5093393;28;20052;-72
2022/05/07 00:31:51;;;;;;;3.78;2.70;;;18.90;53.60;;;;;;5127189;27;20481;-72
2022/05/07 00:34:19;;;;;;;3.55;2.58;;;18.20;57.70;;;;;;5092796;28;20079;-72
2022/05/07 00:36:46;;;;;;;3.63;2.78;;;19.00;58.10;;;;;;5083614;28;20136;-71
2022/05/07 00:39:13;;;;;;;3.60;2.80;;;19.50;58.40;;;;;;5082397;28;20052;-72
2022/05/07 00:41:41;;;;;;;3.42;2.80;;;18.80;57.80;;;;;;5093102;28;20056;-72
2022/05/07 00:44:07;;;;;;;3.05;2.45;;;18.90;58.40;;;;;;5084085;28;20056;-72
2022/05/07 00:46:34;;;;;;;4.35;2.90;;;;;;;;;;5072899;28;20052;-72
2022/05/07 00:49:01;;;;;;;3.30;2.67;;;18.80;57.90;;;;;;5080321;28;20519;-72
2022/05/07 00:51:33;;;;;;;3.10;2.50;;;19.70;59.60;;;;;;5092597;28;20136;-72
2022/05/07 00:54:00;;;;;;;3.00;2.70;;;18.90;58.00;;;;;;5073976;28;20448;-72
2022/05/07 00:56:27;;;;;;;3.38;2.70;;;18.80;58.10;;;;;;5073705;28;20049;-72
2022/05/07 00:58:55;;;;;;;2.85;2.55;;;18.80;53.70;;;;;;5090372;28;20126;-72
2022/05/07 01:01:22;;;;;;;4.40;2.58;;;18.80;53.60;;;;;;5092754;28;20060;-72
2022/05/07 01:03:50;;;;;;;3.50;2.75;;;18.80;59.70;;;;;;5080241;28;20377;-72
2022/05/07 01:06:17;;;;;;;3.10;2.45;;;19.00;58.10;;;;;;5092161;28;20139;-72
2022/05/07 01:08:43;;;;;;;2.78;2.22;;;18.80;58.10;;;;;;5093538;28;20075;-72
2022/05/07 01:11:10;;;;;;;4.13;2.80;;;18.40;58.10;;;;;;5092206;28;20055;-72
2022/05/07 01:13:37;;;;;;;3.83;2.80;;;18.60;58.10;;;;;;5092653;28;20485;-72
2022/05/07 01:16:06;;;;;;;3.47;2.60;;;18.70;58.50;;;;;;5086076;28;20063;-72
2022/05/07 01:18:32;;;;;;;3.10;2.60;;;19.60;59.10;;;;;;5072279;28;20055;-72
2022/05/07 01:20:59;;;;;;;3.35;2.60;;;17.80;59.00;;;;;;5071866;28;20063;-72
2022/05/07 01:23:27;;;;;;;3.65;2.97;;;17.90;57.30;;;;;;5082487;28;20422;-72
2022/05/07 01:25:57;;;;;;;3.67;2.47;;;18.80;58.20;;;;;;5092282;28;20055;-72
2022/05/07 01:28:24;;;;;;;3.85;2.53;;;17.80;57.40;;;;;;5091853;28;20059;-72
2022/05/07 01:30:51;;;;;;;2.95;2.47;;;18.70;58.70;;;;;;5092871;28;20047;-72
2022/05/07 01:33:17;;;;;;;3.28;2.67;;;18.60;59.70;;;;;;5071930;28;20404;-72
2022/05/07 01:35:44;;;;;;;4.10;2.72;;;17.60;58.30;;;;;;5072908;28;20044;-72
2022/05/07 01:38:11;;;;;;;3.05;2.55;;;18.50;58.20;;;;;;5072934;28;20054;-72
2022/05/07 01:40:39;;;;;;;3.40;2.60;;;18.80;58.20;;;;;;5071614;28;20056;-72
2022/05/07 01:43:06;;;;;;;2.90;2.60;;;18.70;58.90;;;;;;5071377;28;20052;-72
2022/05/07 01:45:32;;;;;;;3.65;2.50;;;18.80;58.20;;;;;;5071914;28;20062;-72
2022/05/07 01:50:43;;;;;;;4.00;2.80;;;17.70;57.50;;;;;;5080520;28;20060;-72
2022/05/07 01:53:11;;;;;;;4.30;2.70;;;18.80;58.50;;;;;;5091875;28;20058;-72
2022/05/07 01:55:39;;;;;;;3.30;2.70;;;18.50;58.00;;;;;;5082951;28;20086;-72
2022/05/07 01:58:06;;;;;;;3.35;2.70;;;18.70;60.30;;;;;;5071328;28;20052;-72
2022/05/07 02:00:33;;;;;;;3.53;2.75;;;18.60;53.10;;;;;;5078538;28;20054;-72
2022/05/07 02:03:00;;;;;;;3.38;2.50;;;18.60;58.20;;;;;;5082766;28;20055;-72
2022/05/07 02:05:27;;;;;;;2.50;2.30;;;18.60;53.70;;;;;;5074940;28;20139;-72
2022/05/07 02:07:53;;;;;;;3.03;2.45;;;18.80;58.40;;;;;;5071121;28;20048;-72
2022/05/07 02:10:20;;;;;;;3.70;2.58;;;17.40;58.70;;;;;;5086201;28;20055;-72
2022/05/07 02:12:49;;;;;;;2.97;2.63;;;18.60;58.70;;;;;;5125733;27;20139;-72
2022/05/07 02:15:15;;;;;;;3.58;2.60;;;18.50;58.30;;;;;;5084051;28;20052;-72
2022/05/07 02:17:42;;;;;;;3.55;2.75;;;19.60;59.90;;;;;;5072270;28;20159;-72
2022/05/07 02:20:09;;;;;;;3.88;2.83;;;18.70;58.20;;;;;;5078697;28;20593;-72
2022/05/07 02:22:36;;;;;;;3.35;2.70;;;18.50;58.20;;;;;;5123311;27;20052;-72
2022/05/07 02:25:03;;;;;;;3.53;2.80;;;18.60;58.30;;;;;;5091336;28;20055;-72
2022/05/07 02:27:30;;;;;;;2.90;2.60;;;18.60;53.70;;;;;;5090215;28;20054;-72
2022/05/07 02:29:58;;;;;;;4.22;2.70;;;18.60;59.10;;;;;;5091408;28;20130;-72
2022/05/07 02:32:24;;;;;;;3.72;2.70;;;17.50;58.60;;;;;;5091124;28;20054;-72
2022/05/07 02:34:51;;;;;;;2.95;2.45;;;18.70;58.40;;;;;;5074997;28;20670;-72
2022/05/07 02:37:18;;;;;;;4.25;2.95;;;18.50;54.60;;;;;;5070910;28;20056;-72
2022/05/07 02:39:45;;;;;;;3.58;2.75;;;17.70;57.50;;;;;;5054365;28;20045;-72
2022/05/07 02:44:58;;;;;;;5.63;2.55;;;18.80;58.20;;;;;;5092184;28;20631;-72
2022/05/07 02:47:25;;;;;;;3.38;2.70;;;18.50;58.30;;;;;;5084291;28;20052;-72
2022/05/07 02:49:52;;;;;;;3.97;2.70;;;17.80;57.90;;;;;;5071698;28;20048;-72
2022/05/07 02:52:18;;;;;;;4.40;2.78;;;18.70;58.50;;;;;;5070886;28;20754;-72
2022/05/07 02:54:45;;;;;;;3.47;2.50;;;18.90;58.30;;;;;;5079986;28;20058;-72
2022/05/07 02:57:12;;;;;;;3.25;2.90;;;19.40;58.70;;;;;;5075158;28;20064;-72
2022/05/07 02:59:39;;;;;;;3.38;2.50;;;18.50;58.50;;;;;;5070612;28;20071;-72
2022/05/07 03:02:07;;;;;;;3.67;2.85;;;18.50;58.40;;;;;;5084737;28;20058;-72
2022/05/07 03:04:34;;;;;;;3.35;2.75;;;18.70;58.60;;;;;;5090918;28;20056;-72
2022/05/07 03:07:01;;;;;;;3.45;2.80;;;18.50;53.80;;;;;;5076641;28;20044;-72
2022/05/07 03:09:27;;;;;;;4.63;2.70;;;18.60;58.40;;;;;;5073499;28;20050;-72
2022/05/07 03:11:54;;;;;;;3.47;2.80;;;18.70;58.40;;;;;;5091567;28;20044;-72
2022/05/07 03:14:21;;;;;;;4.68;2.70;;;18.20;58.10;;;;;;5090703;28;20060;-72
2022/05/07 03:16:48;;;;;;;2.92;2.60;;;18.50;58.70;;;;;;5090921;28;20127;-72
2022/05/07 03:19:16;;;;;;;3.17;2.58;;;18.50;55.80;;;;;;5088938;28;20147;-72
2022/05/07 03:21:43;;;;;;;4.18;2.70;;;17.60;57.90;;;;;;5070298;28;20063;-72
2022/05/07 03:24:10;;;;;;;3.22;2.92;;;18.60;59.20;;;;;;5082937;28;20052;-72
2022/05/07 03:26:36;;;;;;;4.05;3.00;;;18.20;58.30;;;;;;5090453;28;20557;-72
2022/05/07 03:29:03;;;;;;;3.25;2.60;;;18.60;58.30;;;;;;5079135;28;20059;-72
2022/05/07 03:31:30;;;;;;;3.13;2.83;;;18.50;59.10;;;;;;5070182;28;20066;-72
2022/05/07 03:33:57;;;;;;;4.60;2.95;;;18.10;57.90;;;;;;5080474;28;20051;-72
2022/05/07 03:36:25;;;;;;;4.70;2.53;;;18.60;58.90;;;;;;5090253;28;20062;-72
2022/05/07 03:38:51;;;;;;;3.45;2.95;;;19.30;58.90;;;;;;5126645;27;20499;-72
2022/05/07 03:41:19;;;;;;;3.60;3.00;;;18.50;59.30;;;;;;5094304;28;20055;-72
2022/05/07 03:43:45;;;;;;;3.50;3.00;;;18.50;54.30;;;;;;5075770;28;20516;-72
2022/05/07 03:46:12;;;;;;;3.95;3.20;;;18.40;58.40;;;;;;5073798;28;20065;-72
2022/05/07 03:48:39;;;;;;;3.45;2.72;;;17.70;58.00;;;;;;5074725;28;20051;-72
2022/05/07 03:51:06;;;;;;;3.58;2.95;;;17.60;57.70;;;;;;5081658;28;20062;-72
2022/05/07 03:53:33;;;;;;;3.47;2.88;;;17.60;57.90;;;;;;5094327;28;20419;-72
2022/05/07 03:56:00;;;;;;;4.40;3.10;;;18.40;53.80;;;;;;5087617;28;20056;-72
2022/05/07 03:58:27;;;;;;;3.53;2.83;;;18.60;58.60;;;;;;5073179;28;20052;-72
2022/05/07 04:00:54;;;;;;;3.72;2.75;;;18.50;58.40;;;;;;5073646;28;20135;-72
2022/05/07 04:03:21;;;;;;;3.40;2.70;;;18.40;58.80;;;;;;5073840;28;20061;-72
2022/05/07 04:05:48;;;;;;;3.65;3.10;;;18.40;53.90;;;;;;5089854;28;20055;-72
2022/05/07 04:08:14;;;;;;;3.83;2.75;;;18.30;58.40;;;;;;5095055;28;20047;-71
2022/05/07 04:10:43;;;;;;;3.70;2.50;;;18.90;58.50;;;;;;5077688;28;20432;-72
2022/05/07 04:13:10;;;;;;;3.45;2.72;;;18.20;58.30;;;;;;5073233;28;20057;-72
2022/05/07 04:15:37;;;;;;;3.25;2.95;;;18.50;58.50;;;;;;5088198;28;20070;-72
2022/05/07 04:18:04;;;;;;;3.22;2.80;;;18.40;53.90;;;;;;5088966;28;20497;-72
2022/05/07 04:20:30;;;;;;;3.33;2.78;;;18.40;58.60;;;;;;5074497;28;20059;-72
2022/05/07 04:22:57;;;;;;;3.38;2.80;;;18.70;59.10;;;;;;5110738;27;20127;-72
2022/05/07 04:25:24;;;;;;;3.33;2.92;;;18.60;58.40;;;;;;5093582;28;20052;-72
2022/05/07 04:27:52;;;;;;;3.95;2.90;;;17.40;58.00;;;;;;5090291;28;20047;-72
2022/05/07 04:30:19;;;;;;;3.85;3.00;;;17.60;57.90;;;;;;5106799;28;20041;-72
2022/05/07 04:32:45;;;;;;;3.00;2.70;;;18.50;59.40;;;;;;5074157;28;20044;-72
2022/05/07 04:35:12;;;;;;;3.17;2.88;;;18.90;59.00;;;;;;5094060;28;20050;-72
2022/05/07 04:37:39;;;;;;;4.20;2.80;;;18.30;58.70;;;;;;5081224;28;20490;-72
2022/05/07 04:40:09;;;;;;;5.07;3.05;;;17.40;57.70;;;;;;5106486;28;20045;-72
2022/05/07 04:42:36;;;;;;;3.45;3.05;;;18.40;58.50;;;;;;5073009;28;20060;-72
2022/05/07 04:45:05;;;;;;;3.33;2.78;;;18.30;53.40;;;;;;5074187;28;20053;-72
2022/05/07 04:47:32;;;;;;;3.90;2.90;;;18.10;58.60;;;;;;5117785;27;20077;-72
2022/05/07 04:49:58;;;;;;;3.30;2.90;;;17.30;57.80;;;;;;5091255;28;20477;-72
2022/05/07 04:52:26;;;;;;;4.53;3.00;;;18.30;53.90;;;;;;5072844;28;20057;-72
2022/05/07 04:54:53;;;;;;;3.58;3.03;;;17.70;58.20;;;;;;5072594;28;20515;-72
2022/05/07 04:57:20;;;;;;;3.78;3.22;;;18.20;58.40;;;;;;5092865;28;20489;-72
2022/05/07 04:59:47;;;;;;;3.55;3.05;;;17.70;57.90;;;;;;5093844;28;20135;-72
2022/05/07 05:02:15;;;;;;;3.70;3.10;;;18.70;58.70;;;;;;5074264;28;20044;-72
2022/05/07 05:04:42;;;;;;;3.95;3.30;;;18.30;57.90;;;;;;5081518;28;20054;-72
2022/05/07 05:07:09;;;;;;;3.33;2.72;;;18.10;58.40;;;;;;5093495;28;20404;-72
2022/05/07 05:09:36;;;;;;;3.35;2.78;;;18.20;58.70;;;;;;5083849;28;20074;-72
2022/05/07 05:12:03;;;;;;;3.60;2.85;;;18.30;53.90;;;;;;5072512;28;20308;-72
2022/05/07 05:17:15;;;;;;;4.15;3.00;;;18.30;53.40;;;;;;5126482;27;20048;-71
2022/05/07 05:19:42;;;;;;;3.78;2.97;;;18.20;59.00;;;;;;5091824;28;20058;-73
2022/05/07 05:22:08;;;;;;;3.88;2.88;;;17.80;58.30;;;;;;5092685;28;20396;-73
2022/05/07 05:24:35;;;;;;;3.95;3.22;;;18.40;58.90;;;;;;5072951;28;20053;-72
2022/05/07 05:27:02;;;;;;;3.80;3.03;;;17.30;58.10;;;;;;5072135;28;20056;-72
2022/05/07 05:29:28;;;;;;;2.92;2.58;;;17.40;58.10;;;;;;5123802;27;20477;-72
2022/05/07 05:31:55;;;;;;;5.13;3.15;;;19.30;60.10;;;;;;5084591;28;20048;-73
2022/05/07 05:34:23;;;;;;;4.45;3.13;;;17.90;58.20;;;;;;5071902;28;20080;-72
2022/05/07 05:36:50;;;;;;;4.50;3.40;;;18.30;53.90;;;;;;5072001;28;20080;-72
2022/05/07 05:39:17;;;;;;;4.95;3.30;;;19.00;59.10;;;;;;5071841;28;20400;-72
2022/05/07 05:41:44;;;;;;;3.80;3.40;;;18.40;58.80;;;;;;5072807;28;20051;-73
2022/05/07 05:44:10;;;;;;;3.70;3.25;;;19.00;59.20;;;;;;5071641;28;20052;-72
2022/05/07 05:46:37;;;;;;;4.65;3.40;;;18.30;58.50;;;;;;5087073;28;20052;-72
2022/05/07 05:49:04;;;;;;;4.00;3.60;;;17.80;60.20;;;;;;5092102;28;20408;-72
2022/05/07 05:51:32;;;;;;;4.07;3.47;;;18.50;58.80;;;;;;5076212;28;20059;-73
2022/05/07 05:53:59;;;;;;;3.40;3.05;;;19.20;59.20;;;;;;5071483;28;20063;-72
2022/05/07 05:56:25;;;;;;;4.18;3.30;;;18.40;58.80;;;;;;5085279;28;20470;-72
2022/05/07 05:58:52;;;;;;;4.05;2.78;;;18.20;58.70;;;;;;5125751;27;20054;-72
2022/05/07 06:01:19;;;;;;;4.90;3.47;;;17.30;58.10;;;;;;5088277;28;20056;-71
2022/05/07 06:03:45;;;;;;;3.30;3.00;;;17.70;57.80;;;;;;5071265;28;20044;-73
2022/05/07 06:06:12;;;;;;;5.15;3.50;;;19.10;59.10;;;;;;5072741;28;20386;-73
2022/05/07 06:08:42;;;;;;;4.25;3.20;;;17.70;58.30;;;;;;5089583;28;20052;-71
2022/05/07 06:11:08;;;;;;;4.43;3.58;;;17.90;58.40;;;;;;5071100;28;20128;-71
2022/05/07 06:13:36;;;;;;;5.00;3.60;;;18.50;58.90;;;;;;5072790;28;20500;-72
2022/05/07 06:16:02;;;;;;;5.72;3.75;;;18.70;59.00;;;;;;5091617;28;20052;-71
2022/05/07 06:18:29;;;;;;;4.15;3.40;;;18.50;58.70;;;;;;5125231;27;20058;-73
2022/05/07 06:20:56;;;;;;;4.47;3.90;;;18.30;53.90;;;;;;5071697;28;20079;-71
2022/05/07 06:23:22;;;;;;;4.40;3.70;;;18.40;58.80;;;;;;5081779;28;20054;-72
2022/05/07 06:28:34;;;;;;;;;;;18.40;54.00;;;;;;5112781;27;20060;-71
2022/05/07 06:31:01;;;;;;;4.45;3.40;;;18.30;58.60;;;;;;5070184;28;20561;-71
2022/05/07 06:33:28;;;;;;;3.55;3.03;;;18.40;58.60;;;;;;5070804;28;20052;-71
2022/05/07 06:35:55;;;;;;;2.90;2.55;;;18.50;58.80;;;;;;5104751;28;20056;-72
2022/05/07 06:38:22;;;;;;;3.25;2.70;;;18.50;58.70;;;;;;5091140;28;20051;-73
2022/05/07 06:40:51;;;;;;;4.40;3.10;;;17.30;58.40;;;;;;5090731;28;20055;-72
2022/05/07 06:43:18;;;;;;;3.72;2.92;;;18.50;58.80;;;;;;5090826;28;20044;-72
2022/05/07 06:45:44;;;;;;;2.90;2.60;;;17.60;58.40;;;;;;5091167;28;20461;-72
2022/05/07 06:48:13;;;;;;;3.40;3.03;;;18.40;59.50;;;;;;5089757;28;20048;-72
2022/05/07 06:50:39;;;;;;;3.80;3.00;;;18.40;58.90;;;;;;5089222;28;20131;-72
2022/05/07 06:53:06;;;;;;;2.97;2.67;;;18.40;58.90;;;;;;5089847;28;20067;-70
2022/05/07 06:55:54;;;;;;;3.20;2.80;;;18.80;59.70;;;;;;5117589;28;20077;-72
2022/05/07 06:58:21;;;;;;;3.10;2.80;;;18.90;59.10;;;;;;5091673;28;20528;-71
2022/05/07 07:00:48;;;;;;;5.38;4.15;;;19.60;61.40;;;;;;5080937;28;20048;-71
2022/05/07 07:03:15;;;;;;;2.70;2.40;;;18.50;58.60;;;;;;5070871;28;20497;-72
2022/05/07 07:05:42;;;;;;;13.02;4.20;;;18.50;59.10;;;;;;5080547;28;20139;-72
2022/05/07 07:08:09;;;;;;;7.38;4.85;;;18.60;54.10;;;;;;5090896;28;20067;-72
2022/05/07 07:10:35;;;;;;;4.50;3.60;;;18.40;58.50;;;;;;5123112;28;20054;-72
2022/05/07 07:13:02;;;;;;;5.68;3.92;;;18.30;58.60;;;;;;5081961;28;20505;-72
2022/05/07 07:15:30;;;;;;;7.50;3.92;;;18.60;59.00;;;;;;5076285;28;20059;-73
2022/05/07 07:17:57;;;;;;;5.07;3.30;;;18.80;59.40;;;;;;5074615;28;20067;-73
2022/05/07 07:20:24;;;;;;;4.65;3.28;;;18.20;58.30;;;;;;5074332;28;20500;-73
2022/05/07 07:22:51;;;;;;;4.95;3.88;;;18.90;58.90;;;;;;5076303;28;20052;-72
2022/05/07 07:25:17;;;;;;;3.92;3.20;;;18.70;54.20;;;;;;5094928;28;20052;-73
2022/05/07 07:27:45;;;;;;;4.30;3.65;;;18.60;58.50;;;;;;5078640;28;20056;-73
2022/05/07 07:30:12;;;;;;;4.78;3.28;;;18.50;58.40;;;;;;5074020;28;20076;-73
2022/05/07 07:32:40;;;;;;;4.07;3.00;;;18.70;54.10;;;;;;5074401;28;20052;-72
2022/05/07 07:35:08;;;;;;;5.88;3.13;;;18.70;54.10;;;;;;5081753;28;20055;-72
2022/05/07 07:37:35;;;;;;;5.75;2.92;;;18.70;54.00;;;;;;5079294;28;20057;-72
2022/05/07 07:40:02;;;;;;;3.90;3.50;;;18.50;58.70;;;;;;5109221;28;20052;-72
2022/05/07 07:42:28;;;;;;;5.05;3.53;;;17.80;58.00;;;;;;5128127;27;20044;-72
2022/05/07 07:50:21;;;;;;;7.90;3.92;;;18.70;58.60;;;;;;5127629;27;20044;-71
2022/05/07 07:52:48;;;;;;;5.53;3.55;;;18.70;58.60;;;;;;5109895;28;20047;-73
2022/05/07 07:55:15;;;;;;;6.35;4.00;;;19.10;58.90;;;;;;5098393;28;20062;-71
2022/05/07 07:57:42;;;;;;;5.00;3.38;;;19.00;58.50;;;;;;5074362;28;20055;-71
2022/05/07 08:00:09;;;;;;;7.47;3.70;;;19.20;58.70;;;;;;5071811;28;20529;-72
2022/05/07 08:02:36;;;;;;;5.38;4.07;;;19.00;58.60;;;;;;5093611;28;20052;-71
2022/05/07 08:05:03;;;;;;;6.45;4.10;;;18.90;59.10;;;;;;5094992;28;20083;-72
2022/05/07 08:13:00;;;;;;;5.22;3.42;;;19.20;58.40;;;;;;5127797;27;20056;-71
2022/05/07 08:15:26;;;;;;;9.93;3.65;;;19.10;53.80;;;;;;5093789;28;20047;-71
2022/05/07 08:17:53;;;;;;;4.55;2.90;;;19.10;57.90;;;;;;5127886;27;20519;-71
2022/05/07 08:20:20;;;;;;;6.00;3.20;;;19.20;59.90;;;;;;5093269;28;20056;-72
2022/05/07 08:22:48;;;;;;;6.07;2.85;;;19.40;58.10;;;;;;5093393;28;20058;-71
2022/05/07 08:25:14;;;;;;;5.38;3.00;;;19.50;58.20;;;;;;5092569;28;20067;-71
2022/05/07 08:27:41;;;;;;;3.58;2.80;;;18.60;57.50;;;;;;5079148;28;20487;-72
2022/05/07 08:30:09;;;;;;;4.78;2.85;;;19.90;57.70;;;;;;5074106;28;20044;-72
2022/05/07 08:32:36;;;;;;;5.75;2.83;;;18.70;56.80;;;;;;5107201;28;20044;-73
2022/05/07 08:35:03;;;;;;;4.50;3.03;;;19.10;57.40;;;;;;5074612;28;20408;-72
2022/05/07 08:37:30;;;;;;;3.92;2.55;;;19.40;57.50;;;;;;5106675;28;20056;-72
2022/05/07 08:40:01;;;;;;;3.13;2.55;;;19.50;57.40;;;;;;5072949;28;20053;-72
2022/05/07 08:42:28;;;;;;;3.17;2.70;;;20.00;58.60;;;;;;5076788;28;20044;-72
2022/05/07 08:44:55;;;;;;;4.18;2.95;;;20.10;57.80;;;;;;5093476;28;20062;-71
2022/05/07 08:47:23;;;;;;;4.15;2.50;;;19.50;58.10;;;;;;5093081;28;20139;-71
2022/05/07 08:49:50;;;;;;;3.17;2.35;;;19.70;57.10;;;;;;5093924;28;20048;-71
2022/05/07 08:52:17;;;;;;;4.45;2.50;;;19.50;57.50;;;;;;5094340;28;20048;-71
2022/05/07 08:54:44;;;;;;;4.57;2.70;;;19.50;52.80;;;;;;5092998;28;20075;-71
2022/05/07 08:57:12;;;;;;;5.95;2.33;;;19.30;57.00;;;;;;5092832;28;20048;-72
2022/05/07 08:59:39;;;;;;;4.45;2.50;;;20.50;57.70;;;;;;5091135;28;20481;-71
2022/05/07 09:02:06;;;;;;;2.85;2.30;;;19.50;57.20;;;;;;5092646;28;20575;-71
2022/05/07 09:04:34;;;;;;;4.68;2.45;;;18.90;56.80;;;;;;5093078;28;20134;-72
2022/05/07 09:07:03;;;;;;;3.28;2.17;;;19.70;57.50;;;;;;5087341;28;20508;-72
2022/05/07 09:09:31;;;;;;;3.67;2.38;;;19.50;52.70;;;;;;5073254;28;20044;-71
2022/05/07 09:11:58;;;;;;;4.18;2.38;;;19.50;53.30;;;;;;5073674;28;20432;-72
2022/05/07 09:14:30;;;;;;;2.58;2.28;;;19.60;57.00;;;;;;5074680;28;20523;-72
2022/05/07 09:16:59;;;;;;;2.85;2.38;;;19.10;57.20;;;;;;5073661;28;20056;-72
2022/05/07 09:19:27;;;;;;;2.42;2.17;;;19.50;53.30;;;;;;5071911;28;20094;-72
2022/05/07 09:22:04;;;;;;;2.72;2.13;;;19.60;52.70;;;;;;5072110;28;20485;-72
2022/05/07 09:24:31;;;;;;;2.38;2.05;;;19.50;56.90;;;;;;5089851;28;20481;-72
2022/05/07 09:26:58;;;;;;;4.20;2.35;;;20.90;59.90;;;;;;5084105;28;20052;-72
2022/05/07 09:29:27;;;;;;;2.80;2.10;;;19.60;57.60;;;;;;5090232;28;20457;-69
2022/05/07 09:31:55;;;;;;;2.47;2.10;;;19.60;52.60;;;;;;5083703;28;20386;-71
2022/05/07 09:37:17;;;;;;;4.30;2.17;;;19.60;52.50;;;;;;5088408;28;20068;-72
2022/05/07 09:39:47;;;;;;;2.95;2.22;;;19.60;52.50;;;;;;5082574;28;20048;-72
2022/05/07 09:42:14;;;;;;;2.33;2.10;;;18.60;56.00;;;;;;5081843;28;20056;-72
2022/05/07 09:44:40;;;;;;;3.60;2.10;;;19.60;52.40;;;;;;5082528;28;20496;-71
2022/05/07 09:47:11;;;;;;;3.85;2.10;;;19.60;52.30;;;;;;5082839;28;20052;-72
2022/05/07 09:50:19;;;;;;;2.50;2.20;;;19.60;57.90;;;;;;5076734;28;20055;-72
2022/05/07 09:52:25;;;;;;;2.72;1.90;;;20.40;57.00;;;;;;5098847;28;20147;-71
2022/05/07 09:57:37;;;;;;;2.58;2.10;;;19.80;56.90;;;;;;5102926;28;20496;-72
2022/05/07 10:00:06;;;;;;;2.60;2.00;;;19.70;57.00;;;;;;5100699;28;20047;-72
2022/05/07 10:02:47;;;;;;;2.50;2.00;;;19.80;52.10;;;;;;5106229;28;20488;-72
2022/05/07 10:05:40;;;;;;;3.53;2.28;;;20.20;56.40;;;;;;5122194;27;20058;-72
2022/05/07 10:08:19;;;;;;;2.75;2.20;;;19.70;57.50;;;;;;5096607;28;20052;-72
2022/05/07 10:10:46;;;;;;;3.25;2.22;;;19.80;52.10;;;;;;5099406;28;20054;-73
2022/05/07 10:13:16;;;;;;;2.30;2.10;;;19.80;52.00;;;;;;5098998;28;20066;-71
2022/05/07 10:15:44;;;;;;;2.30;2.00;;;19.80;57.90;;;;;;5102535;28;20411;-72
2022/05/07 10:18:14;;;;;;;4.10;2.10;;;19.80;52.10;;;;;;5100918;28;20407;-72
2022/05/07 10:20:43;;;;;;;2.20;2.00;;;19.80;52.10;;;;;;5099622;28;20052;-72
2022/05/07 10:23:10;;;;;;;2.85;2.20;;;19.80;52.10;;;;;;5098114;28;20048;-71
2022/05/07 10:25:37;;;;;;;2.58;2.30;;;19.90;57.00;;;;;;5097667;28;20094;-72
2022/05/07 10:28:10;;;;;;;4.45;2.35;;;20.30;56.30;;;;;;5100193;28;20439;-72
2022/05/07 10:30:47;;;;;;;6.38;2.65;;;19.80;56.40;;;;;;5094727;28;20055;-72
2022/05/07 10:33:15;;;;;;;4.68;2.40;;;19.80;52.20;;;;;;5088172;28;20557;-72
2022/05/07 10:35:44;;;;;;;3.22;2.40;;;19.80;52.20;;;;;;5090816;28;20401;-72
2022/05/07 10:38:11;;;;;;;3.20;2.40;;;19.30;56.20;;;;;;5090914;28;20054;-71
2022/05/07 10:40:38;;;;;;;2.65;2.33;;;19.80;52.10;;;;;;5090626;28;20051;-71
2022/05/07 10:43:05;;;;;;;4.18;2.30;;;19.80;56.90;;;;;;5091331;28;20062;-72
2022/05/07 10:45:42;;;;;;;2.65;2.17;;;19.80;56.40;;;;;;5091066;28;20127;-71
2022/05/07 10:48:19;;;;;;;2.50;2.25;;;19.80;52.10;;;;;;5107091;28;20052;-71
2022/05/07 10:50:53;;;;;;;3.70;2.25;;;20.40;58.20;;;;;;5116105;27;20086;-71
2022/05/07 10:53:20;;;;;;;3.27;2.30;;;19.90;57.40;;;;;;5088424;28;20126;-71
2022/05/07 10:55:47;;;;;;;2.88;2.30;;;19.80;56.60;;;;;;5090491;28;20066;-71
2022/05/07 10:58:14;;;;;;;2.92;2.22;;;19.90;56.10;;;;;;5091071;28;20056;-72
2022/05/07 11:00:40;;;;;;;2.72;2.13;;;20.00;56.20;;;;;;5091477;28;20048;-71
2022/05/07 11:03:11;;;;;;;2.80;2.25;;;20.20;56.50;;;;;;5091790;28;20044;-71
2022/05/07 11:05:41;;;;;;;3.13;2.20;;;19.90;52.10;;;;;;5090410;28;20404;-71
2022/05/07 11:08:09;;;;;;;4.13;2.42;;;20.20;56.30;;;;;;5091629;28;20044;-71
2022/05/07 11:10:37;;;;;;;3.13;2.10;;;20.00;56.00;;;;;;5090602;28;20067;-71
2022/05/07 11:13:07;;;;;;;6.18;2.45;;;19.90;56.90;;;;;;5091652;28;20405;-71
2022/05/07 11:15:34;;;;;;;3.05;2.20;;;19.30;57.10;;;;;;5090795;28;20062;-71
2022/05/07 11:18:01;;;;;;;7.07;2.60;;;20.00;52.20;;;;;;5090547;28;20048;-71
2022/05/07 11:20:31;;;;;;;2.60;2.25;;;20.00;54.10;;;;;;5090806;28;20481;-71
2022/05/07 11:23:00;;;;;;;4.00;2.50;;;20.00;52.20;;;;;;5115984;28;20048;-71
2022/05/07 11:25:28;;;;;;;2.65;2.35;;;20.00;52.20;;;;;;5091862;28;20044;-71
2022/05/07 11:27:56;;;;;;;3.53;2.42;;;20.00;56.20;;;;;;5090747;28;20131;-72
2022/05/07 11:30:23;;;;;;;4.65;2.55;;;20.00;57.00;;;;;;5090031;28;20059;-71
2022/05/07 11:32:49;;;;;;;3.58;2.72;;;20.00;52.20;;;;;;5090284;28;20056;-70
2022/05/07 11:35:16;;;;;;;3.65;2.70;;;20.70;56.30;;;;;;5090549;28;20063;-72
2022/05/07 11:37:44;;;;;;;4.55;2.95;;;19.30;56.10;;;;;;5091308;28;20054;-72
2022/05/07 11:40:13;;;;;;;3.42;2.45;;;20.00;57.10;;;;;;5084682;28;20052;-72
2022/05/07 11:42:43;;;;;;;4.60;2.97;;;20.00;52.20;;;;;;5087311;28;20044;-71
2022/05/07 11:47:56;;;;;;;3.70;2.70;;;19.90;58.20;;;;;;5071042;28;20076;-72
2022/05/07 11:50:24;;;;;;;3.63;2.65;;;20.00;52.20;;;;;;5071319;28;20404;-72
2022/05/07 11:52:50;;;;;;;3.42;2.80;;;20.00;52.20;;;;;;5071392;28;20048;-72
2022/05/07 11:55:24;;;;;;;4.53;2.92;;;19.80;57.30;;;;;;5071299;28;20135;-72
2022/05/07 11:57:50;;;;;;;3.50;2.70;;;19.90;56.90;;;;;;5069896;28;20056;-71
2022/05/07 12:00:18;;;;;;;3.80;2.70;;;18.90;56.80;;;;;;5073506;28;20433;-72
2022/05/07 12:02:55;;;;;;;3.95;3.10;;;19.90;56.30;;;;;;5074848;28;20040;-72
2022/05/07 12:05:22;;;;;;;3.85;2.90;;;20.10;58.00;;;;;;5073780;28;20052;-71
2022/05/07 12:07:49;;;;;;;3.97;2.80;;;20.00;52.20;;;;;;5074587;28;20051;-72
2022/05/07 12:10:17;;;;;;;6.57;2.80;;;20.00;52.30;;;;;;5074411;28;20062;-72
2022/05/07 12:12:46;;;;;;;5.53;2.85;;;19.90;56.20;;;;;;5093301;28;20086;-72
2022/05/07 12:15:13;;;;;;;3.97;2.67;;;19.70;56.20;;;;;;5093188;28;20052;-72
2022/05/07 12:17:55;;;;;;;3.75;3.08;;;20.20;57.20;;;;;;5074009;28;20092;-71
2022/05/07 12:20:24;;;;;;;3.78;2.90;;;19.70;56.90;;;;;;5073308;28;20056;-71
2022/05/07 12:31:07;;;;;;;2.97;2.60;;;20.10;57.90;;;;;;5101218;28;20052;-71
2022/05/07 12:33:36;;;;;;;3.78;2.72;;;20.00;57.50;;;;;;5102060;28;20048;-70
2022/05/07 12:36:03;;;;;;;4.90;2.78;;;20.20;56.20;;;;;;5103576;28;20671;-70
2022/05/07 12:38:30;;;;;;;6.30;2.47;;;20.20;57.00;;;;;;5101906;28;20115;-71
2022/05/07 12:40:57;;;;;;;3.53;2.33;;;20.40;58.70;;;;;;5102745;28;20044;-71
2022/05/07 12:43:25;;;;;;;3.28;2.50;;;20.20;52.00;;;;;;5102798;28;20052;-71
2022/05/07 12:45:52;;;;;;;4.78;2.53;;;20.20;51.90;;;;;;5102325;28;20032;-71
2022/05/07 12:48:19;;;;;;;2.80;2.22;;;20.20;57.40;;;;;;5101969;28;20100;-71
2022/05/07 12:50:46;;;;;;;3.28;2.30;;;19.80;56.20;;;;;;5102768;28;20051;-71
2022/05/07 12:53:14;;;;;;;4.13;2.50;;;20.40;57.80;;;;;;5104538;28;20063;-71
2022/05/07 12:55:42;;;;;;;4.93;2.70;;;20.60;56.00;;;;;;5103446;28;20052;-71
2022/05/07 12:58:11;;;;;;;3.88;2.50;;;20.50;55.80;;;;;;5103942;28;20051;-71
2022/05/07 13:00:39;;;;;;;2.95;2.30;;;20.40;57.10;;;;;;5093134;28;20055;-71
2022/05/07 13:03:06;;;;;;;2.92;2.40;;;20.30;55.80;;;;;;5092904;28;20054;-71
2022/05/07 13:05:34;;;;;;;8.15;4.47;;;20.50;56.90;;;;;;5090275;28;20512;-71
2022/05/07 13:08:01;;;;;;;6.40;3.67;;;20.30;56.20;;;;;;5072632;28;20048;-71
2022/05/07 13:10:28;;;;;;;5.78;3.40;;;20.30;52.00;;;;;;5071922;28;20059;-71
2022/05/07 13:12:55;;;;;;;4.00;3.60;;;20.10;57.00;;;;;;5106170;28;20048;-71
2022/05/07 13:15:22;;;;;;;5.93;3.40;;;19.50;56.30;;;;;;5071857;28;20063;-71
2022/05/07 13:17:50;;;;;;;3.95;3.10;;;20.30;52.20;;;;;;5072628;28;20062;-73
2022/05/07 13:20:16;;;;;;;4.45;3.38;;;20.30;56.40;;;;;;5081663;28;20068;-72
2022/05/07 13:22:43;;;;;;;4.78;3.13;;;20.50;57.10;;;;;;5093544;28;20048;-73
2022/05/07 13:25:10;;;;;;;4.18;3.03;;;20.30;52.10;;;;;;5092387;28;20044;-73
2022/05/07 13:27:37;;;;;;;4.30;3.00;;;20.90;56.00;;;;;;5092206;28;20454;-73
2022/05/07 13:30:04;;;;;;;5.05;2.80;;;20.30;52.10;;;;;;5091930;28;20127;-73
2022/05/07 13:32:31;;;;;;;4.50;2.80;;;21.10;57.00;;;;;;5091975;28;20504;-73